createdAt,value
2018-08-13T00:02:02.279Z,96636.08
2018-08-13T00:06:56.916Z,96638.86
2018-08-13T00:11:51.816Z,96631.52
2018-08-13T00:16:46.422Z,96623.30
2018-08-13T00:21:41.016Z,96616.61
2018-08-13T00:26:35.662Z,96611.13
2018-08-13T00:31:30.281Z,96610.46
2018-08-13T00:36:24.847Z,96604.64
2018-08-13T00:41:19.670Z,96612.84
2018-08-13T00:46:14.449Z,96601.58
2018-08-13T00:51:09.094Z,96596.48
2018-08-13T00:56:03.805Z,96600.91
2018-08-13T01:00:58.476Z,96596.51
2018-08-13T01:05:53.123Z,96592.48
2018-08-13T01:10:47.755Z,96593.25
2018-08-13T01:15:42.382Z,96588.42
2018-08-13T01:20:37.012Z,96583.05
2018-08-13T01:25:31.660Z,96591.83
2018-08-13T01:30:26.228Z,96576.08
2018-08-13T01:35:20.803Z,96573.97
2018-08-13T01:40:15.462Z,96573.00
2018-08-13T01:45:12.716Z,96580.34
2018-08-13T01:50:11.301Z,96579.03
2018-08-13T02:00:16.695Z,96575.75
2018-08-13T02:05:11.347Z,96579.42
2018-08-13T02:10:07.196Z,96581.56
2018-08-13T02:15:01.807Z,96573.93
2018-08-13T02:19:56.480Z,96573.69
2018-08-13T02:24:51.084Z,96572.16
2018-08-13T02:29:45.710Z,96573.05
2018-08-13T02:34:40.996Z,96572.19
2018-08-13T02:39:35.624Z,96572.86
2018-08-13T02:44:30.314Z,96568.82
2018-08-13T02:49:24.923Z,96576.27
2018-08-13T02:54:19.523Z,96568.02
2018-08-13T02:59:14.200Z,96570.12
2018-08-13T03:04:08.890Z,96562.44
2018-08-13T03:09:05.472Z,96561.94
2018-08-13T03:14:00.140Z,96556.55
2018-08-13T03:18:55.440Z,96565.58
2018-08-13T03:23:50.143Z,96560.16
2018-08-13T03:28:44.791Z,96555.48
2018-08-13T03:33:40.234Z,96569.19
2018-08-13T03:38:34.956Z,96554.82
2018-08-13T03:43:29.564Z,96547.64
2018-08-13T03:48:24.183Z,96541.61
2018-08-13T03:53:18.800Z,96540.33
2018-08-13T03:58:13.399Z,96535.02
2018-08-13T04:03:08.527Z,96529.66
2018-08-13T04:08:03.227Z,96528.17
2018-08-13T04:12:57.990Z,96548.52
2018-08-13T04:17:52.515Z,96577.83
2018-08-13T04:22:47.167Z,96569.92
2018-08-13T04:27:42.146Z,96563.57
2018-08-13T04:32:36.908Z,96560.23
2018-08-13T04:37:32.250Z,96568.97
2018-08-13T04:42:26.960Z,96566.10
2018-08-13T04:47:21.539Z,96552.97
2018-08-13T04:52:16.200Z,96549.09
2018-08-13T04:57:10.791Z,96532.01
2018-08-13T05:02:05.500Z,96553.84
2018-08-13T05:07:00.139Z,96551.50
2018-08-13T05:11:54.826Z,96561.66
2018-08-13T05:16:49.463Z,96558.22
2018-08-13T05:21:44.055Z,96561.55
2018-08-13T05:26:38.732Z,96568.27
2018-08-13T05:31:33.654Z,96574.37
2018-08-13T05:36:28.284Z,96572.44
2018-08-13T05:41:22.910Z,96566.58
2018-08-13T05:46:17.552Z,96571.66
2018-08-13T05:51:12.204Z,96580.78
2018-08-13T05:56:06.876Z,96588.49
2018-08-13T06:01:01.580Z,96583.81
2018-08-13T06:05:56.234Z,96584.98
2018-08-13T06:10:50.840Z,96587.67
2018-08-13T06:15:45.486Z,96584.66
2018-08-13T06:20:40.136Z,96598.56
2018-08-13T06:25:34.710Z,96607.69
2018-08-13T06:30:29.370Z,96601.53
2018-08-13T06:35:23.975Z,96596.98
2018-08-13T06:40:18.760Z,96601.81
2018-08-13T06:45:13.432Z,96603.38
2018-08-13T06:50:10.830Z,96603.30
2018-08-13T06:55:05.943Z,96605.59
2018-08-13T07:00:00.599Z,96601.39
2018-08-13T07:04:55.214Z,96601.27
2018-08-13T07:09:49.868Z,96611.35
2018-08-13T07:14:44.549Z,96625.20
2018-08-13T07:19:39.224Z,96626.53
2018-08-13T07:24:33.832Z,96637.58
2018-08-13T07:29:28.426Z,96632.05
2018-08-13T07:34:23.090Z,96622.72
2018-08-13T07:39:17.865Z,96623.47
2018-08-13T07:44:12.512Z,96625.07
2018-08-13T07:49:07.221Z,96626.88
2018-08-13T07:54:01.896Z,96637.77
2018-08-13T07:58:56.679Z,96636.53
2018-08-13T08:03:51.480Z,96643.48
2018-08-13T08:08:46.199Z,96634.30
2018-08-13T08:13:40.874Z,96634.00
2018-08-13T08:18:35.668Z,96644.66
2018-08-13T08:23:30.416Z,96637.84
2018-08-13T08:28:25.057Z,96642.78
2018-08-13T08:33:19.785Z,96645.92
2018-08-13T08:38:14.400Z,96644.62
2018-08-13T08:43:10.721Z,96647.30
2018-08-13T08:48:06.847Z,96637.13
2018-08-13T08:53:04.575Z,96626.02
2018-08-13T08:57:59.236Z,96625.03
2018-08-13T09:02:54.008Z,96637.98
2018-08-13T09:07:48.680Z,96638.38
2018-08-13T09:12:43.354Z,96647.11
2018-08-13T09:17:55.156Z,96645.03
2018-08-13T09:27:09.297Z,96638.97
2018-08-13T09:32:30.216Z,96657.84
2018-08-13T09:37:24.936Z,96655.12
2018-08-13T09:42:19.558Z,96662.22
2018-08-13T09:47:14.172Z,96675.56
2018-08-13T09:52:08.819Z,96673.51
2018-08-13T09:57:03.503Z,96676.97
2018-08-13T10:01:58.160Z,96675.16
2018-08-13T10:06:52.824Z,96673.91
2018-08-13T10:11:47.431Z,96672.95
2018-08-13T10:16:42.168Z,96668.30
2018-08-13T10:21:36.773Z,96669.45
2018-08-13T10:26:31.494Z,96660.27
2018-08-13T10:31:26.244Z,96661.31
2018-08-13T10:36:22.203Z,96653.81
2018-08-13T10:41:16.812Z,96655.02
2018-08-13T10:46:11.440Z,96643.97
2018-08-13T10:51:06.099Z,96656.41
2018-08-13T10:56:00.813Z,96645.42
2018-08-13T11:00:55.488Z,96644.32
2018-08-13T11:05:50.202Z,96646.05
2018-08-13T11:10:44.875Z,96648.04
2018-08-13T11:15:39.511Z,96654.98
2018-08-13T11:20:34.215Z,96655.91
2018-08-13T11:25:29.023Z,96660.31
2018-08-13T11:30:23.659Z,96658.57
2018-08-13T11:35:18.430Z,96657.85
2018-08-13T11:40:14.891Z,96672.17
2018-08-13T11:45:10.103Z,96658.56
2018-08-13T11:50:08.564Z,96654.42
2018-08-13T11:55:03.624Z,96662.88
2018-08-13T11:59:58.647Z,96651.09
2018-08-13T12:04:53.801Z,96654.29
2018-08-13T12:09:48.818Z,96658.05
2018-08-13T12:14:43.881Z,96652.22
2018-08-13T12:19:38.881Z,96666.50
2018-08-13T12:24:33.780Z,96668.70
2018-08-13T12:29:28.637Z,96674.91
2018-08-13T12:34:23.662Z,96675.87
2018-08-13T12:39:18.932Z,96686.91
2018-08-13T12:44:14.503Z,96702.69
2018-08-13T12:49:09.572Z,96708.30
2018-08-13T12:54:04.591Z,96703.77
2018-08-13T12:58:59.719Z,96690.48
2018-08-13T13:03:55.544Z,96690.57
2018-08-13T13:08:50.436Z,96691.97
2018-08-13T13:13:45.313Z,96685.94
2018-08-13T13:18:40.297Z,96683.23
2018-08-13T13:23:35.334Z,96673.55
2018-08-13T13:28:30.865Z,96666.03
2018-08-13T13:33:26.123Z,96656.73
2018-08-13T13:38:21.349Z,96639.43
2018-08-13T13:43:16.762Z,96646.97
2018-08-13T13:48:12.531Z,96643.33
2018-08-13T13:53:08.595Z,96644.23
2018-08-13T13:58:07.964Z,96644.17
2018-08-13T14:08:25.538Z,96632.66
2018-08-13T14:13:20.850Z,96631.09
2018-08-13T14:18:16.164Z,96627.48
2018-08-13T14:28:19.140Z,96609.84
2018-08-13T14:33:14.511Z,96605.22
2018-08-13T14:38:09.887Z,96606.22
2018-08-13T14:43:05.100Z,96597.44
2018-08-13T14:48:00.402Z,96596.66
2018-08-13T14:53:00.483Z,96592.73
2018-08-13T14:58:12.224Z,96582.09
2018-08-13T15:19:21.728Z,96568.06
2018-08-13T15:24:16.730Z,96550.77
2018-08-13T15:29:11.656Z,96547.78
2018-08-13T15:34:06.596Z,96552.41
2018-08-13T15:39:01.500Z,96544.30
2018-08-13T15:43:56.491Z,96554.29
2018-08-13T15:48:51.601Z,96555.18
2018-08-13T15:53:46.631Z,96561.98
2018-08-13T15:58:41.323Z,96559.01
2018-08-13T16:03:36.556Z,96547.87
2018-08-13T16:08:31.434Z,96531.00
2018-08-13T16:13:26.583Z,96534.36
2018-08-13T16:18:21.565Z,96534.16
2018-08-13T16:23:16.498Z,96525.15
2018-08-13T16:28:11.413Z,96525.33
2018-08-13T16:33:06.629Z,96526.91
2018-08-13T16:38:01.598Z,96524.96
2018-08-13T16:42:56.520Z,96521.77
2018-08-13T16:47:51.687Z,96520.65
2018-08-13T16:52:47.609Z,96515.80
2018-08-13T16:57:43.196Z,96514.45
2018-08-13T17:02:38.196Z,96502.31
2018-08-13T17:07:33.069Z,96515.08
2018-08-13T17:12:27.948Z,96508.60
2018-08-13T17:17:22.648Z,96500.05
2018-08-13T17:22:17.431Z,96498.50
2018-08-13T17:27:12.162Z,96507.34
2018-08-13T17:32:06.917Z,96510.91
2018-08-13T17:37:01.692Z,96507.50
2018-08-13T17:41:56.422Z,96506.91
2018-08-13T17:46:53.371Z,96520.32
2018-08-13T17:51:48.250Z,96532.05
2018-08-13T17:56:43.020Z,96530.52
2018-08-13T18:01:37.720Z,96540.31
2018-08-13T18:06:32.539Z,96555.09
2018-08-13T18:11:27.186Z,96563.65
2018-08-13T18:16:21.859Z,96616.49
2018-08-13T18:21:16.793Z,96636.58
2018-08-13T18:26:11.601Z,96625.23
2018-08-13T18:31:06.661Z,96603.05
2018-08-13T18:36:01.435Z,96604.53
2018-08-13T18:40:56.434Z,96599.09
2018-08-13T18:45:51.564Z,96595.77
2018-08-13T18:50:46.330Z,96594.30
2018-08-13T18:55:41.175Z,96607.72
2018-08-13T19:00:35.957Z,96624.69
2018-08-13T19:05:31.121Z,96634.83
2018-08-13T19:10:27.683Z,96650.39
2018-08-13T19:15:25.873Z,96658.30
2018-08-13T19:20:20.743Z,96665.05
2018-08-13T19:25:19.074Z,96657.02
2018-08-13T19:30:16.192Z,96673.56
2018-08-13T19:35:11.101Z,96691.83
2018-08-13T19:40:12.816Z,96687.69
2018-08-13T19:45:08.790Z,96691.78
2018-08-13T19:50:03.877Z,96683.41
2018-08-13T19:54:58.501Z,96664.23
2018-08-13T19:59:53.318Z,96686.28
2018-08-13T20:04:48.065Z,96694.59
2018-08-13T20:09:42.924Z,96693.16
2018-08-13T20:14:37.678Z,96699.70
2018-08-13T20:19:32.459Z,96700.97
2018-08-13T20:24:27.211Z,96702.88
2018-08-13T20:29:21.963Z,96703.91
2018-08-13T20:34:16.728Z,96710.22
2018-08-13T20:39:15.014Z,96724.80
2018-08-13T20:44:10.598Z,96731.63
2018-08-13T20:49:05.789Z,96731.58
2018-08-13T20:54:00.586Z,96740.66
2018-08-13T20:58:55.352Z,96756.00
2018-08-13T21:03:50.151Z,96766.30
2018-08-13T21:08:45.024Z,96767.31
2018-08-13T21:13:39.880Z,96772.30
2018-08-13T21:18:34.689Z,96777.48
2018-08-13T21:23:29.602Z,96769.35
2018-08-13T21:28:24.613Z,96773.16
2018-08-13T21:33:19.840Z,96779.80
2018-08-13T21:38:16.598Z,96789.59
2018-08-13T21:43:12.280Z,96788.25
2018-08-13T21:48:08.396Z,96755.58
2018-08-13T21:53:03.544Z,96774.66
2018-08-13T21:57:58.581Z,96789.58
2018-08-13T22:02:53.955Z,96792.23
2018-08-13T22:07:48.812Z,96792.57
2018-08-13T22:12:43.800Z,96788.91
2018-08-13T22:17:38.860Z,96799.87
2018-08-13T22:22:33.776Z,96799.03
2018-08-13T22:27:28.649Z,96811.80
2018-08-13T22:32:23.554Z,96818.78
2018-08-13T22:37:18.357Z,96807.67
2018-08-13T22:42:13.197Z,96811.47
2018-08-13T22:47:07.954Z,96810.80
2018-08-13T22:52:02.909Z,96811.31
2018-08-13T22:56:57.723Z,96824.08
2018-08-13T23:01:52.537Z,96823.09
2018-08-13T23:06:47.363Z,96823.59
2018-08-13T23:11:42.255Z,96823.08
2018-08-13T23:16:37.152Z,96829.89
2018-08-13T23:21:32.118Z,96837.70
2018-08-13T23:26:26.844Z,96834.05
2018-08-13T23:31:21.631Z,96835.53
2018-08-13T23:36:16.344Z,96821.27
2018-08-13T23:41:11.068Z,96820.59
2018-08-13T23:46:05.805Z,96817.43
2018-08-13T23:51:00.518Z,96807.48
2018-08-13T23:55:55.249Z,96799.52
